Time;durP1;ratioP1;P1;durP2;ratioP2;P2;SDS_P1;SDS_P2;PMS_P1;PMS_P2;Temp;Humidity;BMP_temperature;BMP_pressure;BME280_temperature;BME280_humidity;BME280_pressure;Samples;Min_cycle;Max_cycle;Signal;HPM_P1;HPM_P2
2021/04/04 00:00:23;;;;;;;1.33;1.00;;;;;;;;;;5071794;28;20829;-68
2021/04/04 00:02:49;;;;;;;1.33;1.23;;;;;;;;;;5071911;28;20423;-68
2021/04/04 00:05:15;;;;;;;2.83;2.63;;;;;;;;;;5071832;28;20465;-67
2021/04/04 00:07:41;;;;;;;4.73;1.47;;;;;;;;;;5071883;28;20880;-67
2021/04/04 00:10:08;;;;;;;1.10;0.97;;;;;;;;;;5072134;28;20404;-67
2021/04/04 00:12:34;;;;;;;1.43;1.17;;;;;;;;;;5071561;28;20423;-68
2021/04/04 00:15:00;;;;;;;0.90;0.70;;;;;;;;;;5071711;28;20892;-67
2021/04/04 00:17:26;;;;;;;2.10;1.90;;;;;;;;;;5071800;28;20449;-68
2021/04/04 00:19:52;;;;;;;1.20;1.00;;;;;;;;;;5071766;28;20396;-67
2021/04/04 00:22:18;;;;;;;1.43;1.33;;;;;;;;;;5075098;28;20415;-68
2021/04/04 00:24:44;;;;;;;0.80;0.80;;;;;;;;;;5074165;28;21079;-67
2021/04/04 00:27:10;;;;;;;1.27;1.17;;;;;;;;;;5092169;28;20921;-66
2021/04/04 00:29:36;;;;;;;0.80;0.70;;;;;;;;;;5092532;28;20407;-67
2021/04/04 00:32:02;;;;;;;1.07;0.90;;;;;;;;;;5091657;28;20454;-67
2021/04/04 00:34:28;;;;;;;0.80;0.60;;;;;;;;;;5092168;28;20466;-67
2021/04/04 00:36:54;;;;;;;1.53;1.43;;;;;;;;;;5091366;28;20407;-67
2021/04/04 00:39:20;;;;;;;2.13;1.90;;;;;;;;;;5091698;28;20409;-68
2021/04/04 00:41:46;;;;;;;1.70;1.60;;;;;;;;;;5082130;28;20427;-67
2021/04/04 00:44:12;;;;;;;0.80;0.60;;;;;;;;;;5071307;28;20397;-67
2021/04/04 00:46:39;;;;;;;1.40;1.03;;;;;;;;;;5071225;28;20458;-67
2021/04/04 00:49:05;;;;;;;1.83;0.93;;;;;;;;;;5071164;28;20397;-67
2021/04/04 00:51:31;;;;;;;0.80;0.50;;;;;;;;;;5070566;28;20427;-67
2021/04/04 00:53:58;;;;;;;3.23;1.33;;;;;;;;;;5070846;28;21141;-67
2021/04/04 00:56:24;;;;;;;0.90;0.70;;;;;;;;;;5071071;28;20949;-67
2021/04/04 00:58:50;;;;;;;4.87;1.90;;;;;;;;;;5070844;28;20494;-67
2021/04/04 01:01:16;;;;;;;3.17;1.40;;;;;;;;;;5070826;28;20406;-68
2021/04/04 01:03:42;;;;;;;0.97;0.87;;;;;;;;;;5052229;28;21064;-66
2021/04/04 01:06:08;;;;;;;2.00;1.10;;;;;;;;;;5071132;28;20410;-67
2021/04/04 01:08:36;;;;;;;1.80;0.83;;;;;;;;;;5071199;28;20402;-68
2021/04/04 01:11:03;;;;;;;6.10;1.00;;;;;;;;;;5071103;28;20406;-67
2021/04/04 01:13:31;;;;;;;0.80;0.80;;;;;;;;;;5070671;28;20476;-68
2021/04/04 01:16:16;;;;;;;2.07;1.27;;;;;;;;;;5070786;28;20893;-69
2021/04/04 01:18:43;;;;;;;1.30;0.83;;;;;;;;;;5071267;28;20458;-68
2021/04/04 01:21:12;;;;;;;1.63;1.40;;;;;;;;;;5052679;28;20407;-67
2021/04/04 01:23:57;;;;;;;1.63;1.27;;;;;;;;;;5086247;28;20418;-68
2021/04/04 01:26:42;;;;;;;0.80;0.60;;;;;;;;;;5090846;28;20742;-68
2021/04/04 01:29:09;;;;;;;1.03;0.83;;;;;;;;;;5090926;28;20397;-67
2021/04/04 01:31:35;;;;;;;1.70;1.10;;;;;;;;;;5090459;28;20492;-66
2021/04/04 01:34:02;;;;;;;1.47;1.13;;;;;;;;;;5090687;28;20397;-67
2021/04/04 01:36:29;;;;;;;1.50;1.40;;;;;;;;;;5091000;28;20416;-68
2021/04/04 01:38:56;;;;;;;1.20;1.10;;;;;;;;;;5091154;28;20518;-68
2021/04/04 01:41:21;;;;;;;1.23;1.13;;;;;;;;;;5090527;28;21013;-67
2021/04/04 01:43:49;;;;;;;1.00;0.60;;;;;;;;;;5090650;28;20408;-68
2021/04/04 01:46:15;;;;;;;1.37;1.27;;;;;;;;;;5090786;28;20479;-68
2021/04/04 01:48:41;;;;;;;3.33;3.03;;;;;;;;;;5090703;28;20451;-67
2021/04/04 01:51:09;;;;;;;0.80;0.73;;;;;;;;;;5065547;28;20414;-67
2021/04/04 01:53:36;;;;;;;0.80;0.80;;;;;;;;;;5070243;28;20446;-68
2021/04/04 01:56:02;;;;;;;3.90;1.87;;;;;;;;;;5070502;28;20414;-67
2021/04/04 01:58:28;;;;;;;1.93;1.70;;;;;;;;;;5070225;28;20784;-67
2021/04/04 02:00:54;;;;;;;1.40;1.03;;;;;;;;;;5070251;28;20399;-68
2021/04/04 02:03:22;;;;;;;1.67;0.90;;;;;;;;;;5052219;28;20454;-67
2021/04/04 02:05:49;;;;;;;1.43;1.33;;;;;;;;;;5070024;28;20399;-68
2021/04/04 02:08:16;;;;;;;1.50;1.40;;;;;;;;;;5051950;28;20498;-68
2021/04/04 02:10:42;;;;;;;1.17;1.07;;;;;;;;;;5070108;28;20399;-67
2021/04/04 02:13:09;;;;;;;2.93;1.73;;;;;;;;;;5069704;28;20762;-67
2021/04/04 02:15:35;;;;;;;2.30;0.90;;;;;;;;;;5070230;28;20452;-66
2021/04/04 02:18:02;;;;;;;1.37;1.23;;;;;;;;;;5069905;28;20481;-67
2021/04/04 02:20:29;;;;;;;1.00;0.80;;;;;;;;;;5051769;28;20443;-67
2021/04/04 02:22:58;;;;;;;4.60;1.13;;;;;;;;;;5069102;28;20437;-67
2021/04/04 02:25:24;;;;;;;1.37;1.17;;;;;;;;;;5069629;28;20777;-68
2021/04/04 02:27:50;;;;;;;1.17;0.93;;;;;;;;;;5069902;28;20414;-68
2021/04/04 02:30:17;;;;;;;1.07;0.90;;;;;;;;;;5069928;28;20874;-67
2021/04/04 02:32:45;;;;;;;0.80;0.70;;;;;;;;;;5069447;28;20449;-68
2021/04/04 02:35:13;;;;;;;2.20;1.33;;;;;;;;;;5070030;28;20409;-67
2021/04/04 02:37:39;;;;;;;1.27;1.17;;;;;;;;;;5070137;28;20530;-68
2021/04/04 02:40:06;;;;;;;10.60;1.30;;;;;;;;;;5070062;28;20407;-66
2021/04/04 02:42:33;;;;;;;0.80;0.63;;;;;;;;;;5069825;28;20422;-65
2021/04/04 02:45:02;;;;;;;0.80;0.60;;;;;;;;;;5071494;28;21021;-68
2021/04/04 02:47:55;;;;;;;2.13;2.00;;;;;;;;;;5074048;28;20405;-66
2021/04/04 02:50:22;;;;;;;0.77;0.67;;;;;;;;;;5070188;28;20406;-67
2021/04/04 02:52:49;;;;;;;2.37;0.90;;;;;;;;;;5073426;28;20425;-67
2021/04/04 02:55:16;;;;;;;1.20;0.80;;;;;;;;;;5073730;28;20873;-67
2021/04/04 02:57:42;;;;;;;0.90;0.73;;;;;;;;;;5073422;28;20457;-67
2021/04/04 03:00:10;;;;;;;0.80;0.80;;;;;;;;;;5073646;28;20402;-66
2021/04/04 03:02:37;;;;;;;1.20;0.90;;;;;;;;;;5073285;28;20425;-66
2021/04/04 03:05:05;;;;;;;1.40;1.30;;;;;;;;;;5073409;28;20925;-66
2021/04/04 03:07:31;;;;;;;2.93;1.17;;;;;;;;;;5073327;28;20394;-67
2021/04/04 03:09:58;;;;;;;0.80;0.70;;;;;;;;;;5073328;28;20402;-66
2021/04/04 03:12:25;;;;;;;1.07;0.93;;;;;;;;;;5072889;28;20445;-66
2021/04/04 03:14:52;;;;;;;1.10;1.00;;;;;;;;;;5073210;28;20413;-68
2021/04/04 03:17:18;;;;;;;2.50;1.20;;;;;;;;;;5073109;28;20955;-66
2021/04/04 03:19:45;;;;;;;0.70;0.60;;;;;;;;;;5072939;28;20410;-67
2021/04/04 03:22:12;;;;;;;0.93;0.83;;;;;;;;;;5072771;28;20442;-65
2021/04/04 03:24:38;;;;;;;1.43;0.97;;;;;;;;;;5072789;28;20438;-68
2021/04/04 03:27:05;;;;;;;1.97;1.77;;;;;;;;;;5072869;28;20769;-67
2021/04/04 03:29:31;;;;;;;0.70;0.50;;;;;;;;;;5054855;28;20422;-67
2021/04/04 03:34:28;;;;;;;1.47;0.90;;;;;;;;;;5070259;28;20972;-69
2021/04/04 03:36:54;;;;;;;1.43;1.33;;;;;;;;;;5054810;28;20838;-68
2021/04/04 03:39:21;;;;;;;0.80;0.60;;;;;;;;;;5072783;28;20405;-69
2021/04/04 03:41:48;;;;;;;1.53;1.10;;;;;;;;;;5072698;28;20405;-69
2021/04/04 03:44:17;;;;;;;0.97;0.83;;;;;;;;;;5092611;28;20748;-69
2021/04/04 03:46:45;;;;;;;1.67;1.00;;;;;;;;;;5092778;28;20397;-69
2021/04/04 03:49:11;;;;;;;6.77;1.00;;;;;;;;;;5092899;28;20407;-68
2021/04/04 03:51:37;;;;;;;3.13;1.10;;;;;;;;;;5092464;28;20405;-69
2021/04/04 03:54:04;;;;;;;17.63;1.60;;;;;;;;;;5074616;28;20907;-69
2021/04/04 03:56:32;;;;;;;1.13;0.80;;;;;;;;;;5092634;28;20948;-68
2021/04/04 03:59:00;;;;;;;1.87;0.97;;;;;;;;;;5092670;28;20451;-69
2021/04/04 04:01:27;;;;;;;0.80;0.70;;;;;;;;;;5092287;28;21015;-68
2021/04/04 04:03:53;;;;;;;3.30;1.07;;;;;;;;;;5092348;28;20416;-68
2021/04/04 04:06:20;;;;;;;1.20;0.90;;;;;;;;;;5092605;28;20429;-68
2021/04/04 04:08:47;;;;;;;2.27;1.07;;;;;;;;;;5092979;28;20775;-69
2021/04/04 04:11:14;;;;;;;1.60;1.10;;;;;;;;;;5092759;28;20496;-69
2021/04/04 04:13:41;;;;;;;1.17;1.10;;;;;;;;;;5092405;28;20425;-68
2021/04/04 04:16:07;;;;;;;0.97;0.77;;;;;;;;;;5092271;28;20780;-68
2021/04/04 04:18:33;;;;;;;4.17;1.70;;;;;;;;;;5092297;28;20448;-68
2021/04/04 04:21:00;;;;;;;0.80;0.70;;;;;;;;;;5092244;28;20407;-69
2021/04/04 04:23:26;;;;;;;1.73;0.97;;;;;;;;;;5105978;28;20423;-69
2021/04/04 04:25:53;;;;;;;0.80;0.77;;;;;;;;;;5112522;28;20412;-69
2021/04/04 04:28:19;;;;;;;0.80;0.67;;;;;;;;;;5112402;28;20482;-69
2021/04/04 04:30:46;;;;;;;0.70;0.50;;;;;;;;;;5112177;28;21133;-69
2021/04/04 04:33:15;;;;;;;0.80;0.70;;;;;;;;;;5112097;28;20436;-68
2021/04/04 04:35:43;;;;;;;1.23;1.13;;;;;;;;;;5112364;28;20468;-69
2021/04/04 04:38:09;;;;;;;0.90;0.80;;;;;;;;;;5112271;28;20450;-69
2021/04/04 04:40:35;;;;;;;2.03;1.13;;;;;;;;;;5093638;28;20451;-69
2021/04/04 04:43:03;;;;;;;1.70;1.60;;;;;;;;;;5111994;28;20798;-69
2021/04/04 04:45:33;;;;;;;2.10;1.30;;;;;;;;;;5111916;28;20404;-69
2021/04/04 04:47:59;;;;;;;0.70;0.50;;;;;;;;;;5112287;28;20776;-68
2021/04/04 04:50:26;;;;;;;0.90;0.60;;;;;;;;;;5112042;28;20767;-68
2021/04/04 04:52:52;;;;;;;0.70;0.50;;;;;;;;;;5111789;28;20462;-69
2021/04/04 04:55:19;;;;;;;1.50;1.20;;;;;;;;;;5111795;28;20403;-68
2021/04/04 04:57:45;;;;;;;1.30;0.87;;;;;;;;;;5082443;28;20444;-68
2021/04/04 05:00:11;;;;;;;0.80;0.60;;;;;;;;;;5071374;28;20404;-68
2021/04/04 05:02:38;;;;;;;2.10;0.93;;;;;;;;;;5070955;28;20462;-68
2021/04/04 05:05:05;;;;;;;0.90;0.73;;;;;;;;;;5070838;28;20832;-68
2021/04/04 05:07:33;;;;;;;1.00;0.77;;;;;;;;;;5072368;28;21002;-68
2021/04/04 05:10:00;;;;;;;0.70;0.50;;;;;;;;;;5078670;28;20778;-68
2021/04/04 05:12:26;;;;;;;0.70;0.60;;;;;;;;;;5095667;28;20429;-68
2021/04/04 05:14:53;;;;;;;2.83;2.13;;;;;;;;;;5078740;28;20421;-69
2021/04/04 05:17:20;;;;;;;1.57;1.47;;;;;;;;;;5092648;28;21163;-69
2021/04/04 05:19:45;;;;;;;1.07;0.80;;;;;;;;;;5085429;28;20892;-70
2021/04/04 05:22:13;;;;;;;0.83;0.83;;;;;;;;;;5074689;28;20468;-70
2021/04/04 05:24:39;;;;;;;0.90;0.80;;;;;;;;;;5089915;28;20408;-70
2021/04/04 05:27:05;;;;;;;0.70;0.50;;;;;;;;;;5084875;28;20434;-70
2021/04/04 05:29:31;;;;;;;0.90;0.70;;;;;;;;;;5104003;28;20635;-70
2021/04/04 05:31:58;;;;;;;0.80;0.50;;;;;;;;;;5069709;28;20764;-69
2021/04/04 05:34:28;;;;;;;2.93;1.03;;;;;;;;;;5072371;28;20487;-69
2021/04/04 05:36:54;;;;;;;0.77;0.60;;;;;;;;;;5073829;28;20497;-69
2021/04/04 05:39:21;;;;;;;0.93;0.83;;;;;;;;;;5079051;28;20475;-69
2021/04/04 05:41:48;;;;;;;0.70;0.50;;;;;;;;;;5086721;28;20401;-69
2021/04/04 05:44:17;;;;;;;0.80;0.80;;;;;;;;;;5083456;28;20418;-69
2021/04/04 05:46:45;;;;;;;5.13;1.17;;;;;;;;;;5090540;28;20407;-69
2021/04/04 05:49:18;;;;;;;0.90;0.70;;;;;;;;;;5083429;28;20410;-69
2021/04/04 05:51:51;;;;;;;1.03;0.60;;;;;;;;;;5069385;28;20398;-70
2021/04/04 05:54:25;;;;;;;5.63;0.90;;;;;;;;;;5070760;28;20569;-69
2021/04/04 05:56:58;;;;;;;0.70;0.60;;;;;;;;;;5077680;28;20404;-69
2021/04/04 05:59:38;;;;;;;0.80;0.60;;;;;;;;;;5090722;28;20400;-69
2021/04/04 06:02:06;;;;;;;0.70;0.50;;;;;;;;;;5090264;28;20398;-69
2021/04/04 06:04:32;;;;;;;0.70;0.50;;;;;;;;;;5090840;28;21139;-69
2021/04/04 06:07:05;;;;;;;0.70;0.50;;;;;;;;;;5090676;28;20397;-69
2021/04/04 06:09:46;;;;;;;0.97;0.87;;;;;;;;;;5083341;28;20397;-69
2021/04/04 06:12:12;;;;;;;1.17;1.07;;;;;;;;;;5068757;28;20421;-69
2021/04/04 06:15:03;;;;;;;0.80;0.60;;;;;;;;;;5070431;28;20401;-69
2021/04/04 06:17:34;;;;;;;0.80;0.67;;;;;;;;;;5070413;28;20453;-69
2021/04/04 06:20:14;;;;;;;3.27;0.60;;;;;;;;;;5070476;28;20437;-69
2021/04/04 06:22:58;;;;;;;1.20;0.90;;;;;;;;;;5088956;28;20509;-70
2021/04/04 06:25:27;;;;;;;0.73;0.53;;;;;;;;;;5096530;28;20795;-69
2021/04/04 06:27:57;;;;;;;1.03;0.93;;;;;;;;;;5114919;28;20388;-69
2021/04/04 06:30:49;;;;;;;0.90;0.67;;;;;;;;;;5114741;28;20411;-69
2021/04/04 06:33:22;;;;;;;2.37;2.00;;;;;;;;;;5114643;28;20502;-68
2021/04/04 06:36:04;;;;;;;1.10;0.80;;;;;;;;;;5096221;28;20472;-69
2021/04/04 06:38:48;;;;;;;1.10;0.73;;;;;;;;;;5115074;28;20455;-69
2021/04/04 06:41:20;;;;;;;0.90;0.80;;;;;;;;;;5114305;28;20901;-69
2021/04/04 06:43:55;;;;;;;0.80;0.70;;;;;;;;;;5114688;28;20400;-69
2021/04/04 06:46:44;;;;;;;1.17;0.97;;;;;;;;;;5114717;28;20909;-68
2021/04/04 06:49:13;;;;;;;1.00;0.80;;;;;;;;;;5114644;28;20392;-68
2021/04/04 06:51:51;;;;;;;1.00;0.90;;;;;;;;;;5110360;28;20413;-68
2021/04/04 06:54:34;;;;;;;0.90;0.70;;;;;;;;;;5088656;28;20421;-70
2021/04/04 06:57:00;;;;;;;1.80;1.70;;;;;;;;;;5092594;28;20397;-68
2021/04/04 06:59:43;;;;;;;1.33;0.67;;;;;;;;;;5090590;28;20482;-69
2021/04/04 07:02:09;;;;;;;1.83;1.00;;;;;;;;;;5072227;28;20397;-70
2021/04/04 07:04:47;;;;;;;0.80;0.60;;;;;;;;;;5093254;28;20401;-70
2021/04/04 07:07:19;;;;;;;0.90;0.80;;;;;;;;;;5091547;28;20470;-70
2021/04/04 07:10:04;;;;;;;1.27;1.17;;;;;;;;;;5093108;28;20442;-70
2021/04/04 07:12:48;;;;;;;0.83;0.77;;;;;;;;;;5090730;28;20877;-69
2021/04/04 07:15:33;;;;;;;0.73;0.50;;;;;;;;;;5091962;28;20698;-68
2021/04/04 07:18:14;;;;;;;4.20;1.00;;;;;;;;;;5093249;28;20446;-69
2021/04/04 07:20:52;;;;;;;11.50;2.70;;;;;;;;;;5093164;28;20385;-68
2021/04/04 07:23:33;;;;;;;0.83;0.70;;;;;;;;;;5092954;28;20509;-68
2021/04/04 07:26:18;;;;;;;3.53;0.70;;;;;;;;;;5093351;28;20397;-69
2021/04/04 07:28:44;;;;;;;1.30;0.83;;;;;;;;;;5092626;28;20398;-69
2021/04/04 07:31:14;;;;;;;0.87;0.77;;;;;;;;;;5092108;28;20879;-69
2021/04/04 07:33:55;;;;;;;0.70;0.57;;;;;;;;;;5092595;28;20441;-69
2021/04/04 07:36:38;;;;;;;5.93;1.17;;;;;;;;;;5093113;28;20389;-70
2021/04/04 07:39:04;;;;;;;25.30;1.60;;;;;;;;;;5093082;28;20454;-70
2021/04/04 07:41:39;;;;;;;0.80;0.67;;;;;;;;;;5092181;28;20487;-70
2021/04/04 07:44:11;;;;;;;0.70;0.50;;;;;;;;;;5092543;28;20418;-70
2021/04/04 07:46:43;;;;;;;0.97;0.77;;;;;;;;;;5074423;28;20484;-70
2021/04/04 07:49:15;;;;;;;4.43;1.00;;;;;;;;;;5090281;28;20814;-70
2021/04/04 07:51:41;;;;;;;0.90;0.80;;;;;;;;;;5092610;28;20397;-70
2021/04/04 07:54:26;;;;;;;2.40;1.23;;;;;;;;;;5074959;28;20440;-70
2021/04/04 07:56:52;;;;;;;2.30;1.00;;;;;;;;;;5085577;28;20773;-70
2021/04/04 07:59:31;;;;;;;1.37;0.80;;;;;;;;;;5090953;28;20437;-70
2021/04/04 08:01:57;;;;;;;0.80;0.80;;;;;;;;;;5092065;28;20405;-70
2021/04/04 08:04:23;;;;;;;10.77;1.13;;;;;;;;;;5077594;28;20466;-70
2021/04/04 08:06:52;;;;;;;0.70;0.50;;;;;;;;;;5105711;28;20405;-70
2021/04/04 08:09:28;;;;;;;1.37;0.90;;;;;;;;;;5083901;28;20404;-69
2021/04/04 08:12:12;;;;;;;1.13;1.03;;;;;;;;;;5100358;28;20412;-69
2021/04/04 08:14:45;;;;;;;0.80;0.60;;;;;;;;;;5092411;28;20418;-69
2021/04/04 08:17:11;;;;;;;0.80;0.70;;;;;;;;;;5093223;28;20403;-69
2021/04/04 08:19:39;;;;;;;1.47;0.90;;;;;;;;;;5105589;28;20424;-69
2021/04/04 08:22:09;;;;;;;1.03;0.60;;;;;;;;;;5093246;28;20402;-69
2021/04/04 08:24:35;;;;;;;0.80;0.60;;;;;;;;;;5092347;28;20458;-69
2021/04/04 08:27:11;;;;;;;4.33;2.00;;;;;;;;;;5101027;28;20401;-69
2021/04/04 08:29:42;;;;;;;1.70;1.20;;;;;;;;;;5068729;28;20428;-69
2021/04/04 08:32:10;;;;;;;1.27;1.17;;;;;;;;;;5087373;28;20421;-70
2021/04/04 08:34:37;;;;;;;0.80;0.57;;;;;;;;;;5093684;28;20401;-69
2021/04/04 08:37:21;;;;;;;3.90;1.60;;;;;;;;;;5090578;28;20540;-69
2021/04/04 08:39:57;;;;;;;1.03;0.93;;;;;;;;;;5091036;28;20398;-70
2021/04/04 08:42:24;;;;;;;0.80;0.63;;;;;;;;;;5090732;28;20453;-70
2021/04/04 08:45:04;;;;;;;0.90;0.80;;;;;;;;;;5072482;28;20462;-70
2021/04/04 08:47:31;;;;;;;0.70;0.50;;;;;;;;;;5090107;28;20408;-69
2021/04/04 08:49:58;;;;;;;1.40;0.80;;;;;;;;;;5090950;28;20824;-69
2021/04/04 08:52:29;;;;;;;1.50;1.37;;;;;;;;;;5090491;28;20808;-69
2021/04/04 08:54:55;;;;;;;1.97;1.30;;;;;;;;;;5090951;28;20400;-70
2021/04/04 08:57:30;;;;;;;3.43;1.53;;;;;;;;;;5090094;28;20569;-70
2021/04/04 08:59:56;;;;;;;0.90;0.70;;;;;;;;;;5090581;28;20405;-66
2021/04/04 09:02:26;;;;;;;3.97;1.20;;;;;;;;;;5084951;28;20435;-67
2021/04/04 09:04:53;;;;;;;4.50;2.03;;;;;;;;;;5090743;28;20449;-67
2021/04/04 09:07:20;;;;;;;1.17;1.00;;;;;;;;;;5090444;28;20761;-67
2021/04/04 09:09:48;;;;;;;6.40;3.40;;;;;;;;;;5090523;28;20427;-68
2021/04/04 09:12:14;;;;;;;1.53;1.37;;;;;;;;;;5089543;28;20955;-68
2021/04/04 09:14:42;;;;;;;2.50;0.70;;;;;;;;;;5090559;28;20494;-72
2021/04/04 09:17:17;;;;;;;0.80;0.60;;;;;;;;;;5085551;28;20425;-72
2021/04/04 09:19:44;;;;;;;0.80;0.70;;;;;;;;;;5090735;28;20408;-72
2021/04/04 09:22:13;;;;;;;0.80;0.70;;;;;;;;;;5071086;28;20412;-72
2021/04/04 09:24:45;;;;;;;1.83;1.33;;;;;;;;;;5089119;28;20411;-71
2021/04/04 09:27:12;;;;;;;3.93;0.90;;;;;;;;;;5087023;28;20979;-71
2021/04/04 09:29:39;;;;;;;0.93;0.73;;;;;;;;;;5075867;28;20495;-70
2021/04/04 09:32:10;;;;;;;1.80;1.43;;;;;;;;;;5104196;28;20417;-70
2021/04/04 09:34:40;;;;;;;1.03;0.60;;;;;;;;;;5091827;22;20482;-80
2021/04/04 09:37:06;;;;;;;6.20;0.73;;;;;;;;;;5074046;28;20426;-80
2021/04/04 09:39:32;;;;;;;4.90;3.33;;;;;;;;;;5085665;22;20497;-70
2021/04/04 09:41:59;;;;;;;0.80;0.50;;;;;;;;;;5053709;28;20398;-71
2021/04/04 09:44:32;;;;;;;0.80;0.60;;;;;;;;;;5046457;28;20929;-71
2021/04/04 09:47:01;;;;;;;0.80;0.77;;;;;;;;;;5040505;28;20401;-71
2021/04/04 09:49:39;;;;;;;0.70;0.60;;;;;;;;;;5026703;28;20814;-71
2021/04/04 09:52:18;;;;;;;1.63;0.70;;;;;;;;;;5042324;28;20818;-71
2021/04/04 09:55:03;;;;;;;0.80;0.50;;;;;;;;;;5050325;28;20487;-71
2021/04/04 09:57:29;;;;;;;0.83;0.63;;;;;;;;;;5049897;28;20456;-71
2021/04/04 09:59:55;;;;;;;0.83;0.73;;;;;;;;;;5045203;28;20469;-70
2021/04/04 10:02:31;;;;;;;1.03;0.70;;;;;;;;;;5049748;28;20421;-71
2021/04/04 10:04:57;;;;;;;1.23;0.60;;;;;;;;;;5048040;28;20401;-70
2021/04/04 10:07:27;;;;;;;1.20;1.10;;;;;;;;;;5038794;28;20398;-70
2021/04/04 10:09:53;;;;;;;3.63;1.13;;;;;;;;;;5040320;28;20452;-70
2021/04/04 10:12:19;;;;;;;0.70;0.50;;;;;;;;;;5045383;28;20445;-70
2021/04/04 10:14:59;;;;;;;0.90;0.67;;;;;;;;;;5045230;28;20413;-70
2021/04/04 10:17:25;;;;;;;5.23;0.87;;;;;;;;;;5045220;28;20552;-71
2021/04/04 10:19:54;;;;;;;1.10;0.73;;;;;;;;;;5048334;28;20993;-71
2021/04/04 10:22:20;;;;;;;1.73;1.63;;;;;;;;;;5049124;28;20459;-70
2021/04/04 10:24:47;;;;;;;2.70;1.10;;;;;;;;;;5046638;28;20397;-70
2021/04/04 10:27:16;;;;;;;1.50;1.10;;;;;;;;;;5043408;28;20552;-70
2021/04/04 10:29:42;;;;;;;1.57;0.77;;;;;;;;;;5044089;28;20428;-70
2021/04/04 10:32:08;;;;;;;1.20;1.10;;;;;;;;;;5045177;28;20434;-71
2021/04/04 10:34:54;;;;;;;0.90;0.60;;;;;;;;;;5043633;28;20457;-70
2021/04/04 10:37:29;;;;;;;0.70;0.47;;;;;;;;;;5047362;28;20500;-70
2021/04/04 10:40:15;;;;;;;0.80;0.53;;;;;;;;;;5044455;28;20476;-69
2021/04/04 10:42:41;;;;;;;0.70;0.50;;;;;;;;;;5047394;28;20408;-70
2021/04/04 10:45:07;;;;;;;0.70;0.50;;;;;;;;;;5052863;28;20425;-70
2021/04/04 10:47:33;;;;;;;0.80;0.60;;;;;;;;;;5054437;28;20857;-70
2021/04/04 10:50:01;;;;;;;0.70;0.50;;;;;;;;;;5054093;28;20438;-70
2021/04/04 10:52:31;;;;;;;4.03;1.03;;;;;;;;;;5054164;28;20413;-71
2021/04/04 10:54:57;;;;;;;1.10;0.73;;;;;;;;;;5053575;28;20452;-71
2021/04/04 10:57:25;;;;;;;0.70;0.60;;;;;;;;;;5043892;28;20543;-71
2021/04/04 10:59:51;;;;;;;0.70;0.43;;;;;;;;;;5049872;28;20429;-71
2021/04/04 11:02:19;;;;;;;1.97;0.87;;;;;;;;;;5052137;28;20425;-72
2021/04/04 11:04:46;;;;;;;2.37;1.47;;;;;;;;;;5044592;28;20409;-71
2021/04/04 11:07:12;;;;;;;0.70;0.50;;;;;;;;;;5049515;28;20435;-71
2021/04/04 11:09:38;;;;;;;0.70;0.60;;;;;;;;;;5043637;28;20422;-71
2021/04/04 11:12:05;;;;;;;0.70;0.50;;;;;;;;;;5042786;28;20410;-71
2021/04/04 11:14:32;;;;;;;1.10;0.60;;;;;;;;;;5023928;28;20407;-71
2021/04/04 11:16:59;;;;;;;0.80;0.70;;;;;;;;;;5043628;28;20401;-71
2021/04/04 11:19:26;;;;;;;1.57;0.70;;;;;;;;;;5049877;28;20515;-70
2021/04/04 11:21:54;;;;;;;0.70;0.50;;;;;;;;;;5059313;28;20429;-69
2021/04/04 11:24:22;;;;;;;2.73;1.10;;;;;;;;;;5057338;28;20421;-71
2021/04/04 11:26:52;;;;;;;0.70;0.50;;;;;;;;;;5051345;28;20407;-70
2021/04/04 11:29:23;;;;;;;1.83;0.77;;;;;;;;;;5046408;28;20448;-71
2021/04/04 11:31:53;;;;;;;0.80;0.50;;;;;;;;;;5052381;28;20410;-70
2021/04/04 11:34:22;;;;;;;0.70;0.50;;;;;;;;;;5034591;28;20445;-71
2021/04/04 11:36:48;;;;;;;1.47;1.33;;;;;;;;;;5050010;28;20927;-71
2021/04/04 11:39:15;;;;;;;1.30;0.67;;;;;;;;;;5050129;28;20435;-71
2021/04/04 11:41:51;;;;;;;0.80;0.60;;;;;;;;;;5038595;28;20423;-71
2021/04/04 11:44:20;;;;;;;1.33;0.57;;;;;;;;;;5053289;28;20404;-71
2021/04/04 11:46:50;;;;;;;2.20;1.40;;;;;;;;;;5048102;28;20925;-71
2021/04/04 11:49:28;;;;;;;1.47;1.37;;;;;;;;;;5045315;28;20763;-71
2021/04/04 11:51:58;;;;;;;0.80;0.50;;;;;;;;;;5048850;28;20406;-71
2021/04/04 11:54:42;;;;;;;0.80;0.70;;;;;;;;;;5044685;28;20399;-71
2021/04/04 11:57:08;;;;;;;0.80;0.73;;;;;;;;;;5043556;28;20433;-71
2021/04/04 11:59:34;;;;;;;0.70;0.50;;;;;;;;;;5049928;28;20534;-70
2021/04/04 12:02:00;;;;;;;0.70;0.50;;;;;;;;;;5036847;28;20414;-71
2021/04/04 12:04:35;;;;;;;0.70;0.50;;;;;;;;;;5036647;28;20407;-72
2021/04/04 12:07:08;;;;;;;1.63;0.90;;;;;;;;;;5037493;28;20891;-71
2021/04/04 12:09:34;;;;;;;16.70;1.43;;;;;;;;;;5042076;28;21013;-70
2021/04/04 12:12:01;;;;;;;0.77;0.60;;;;;;;;;;5051123;28;20460;-70
2021/04/04 12:14:27;;;;;;;3.13;1.57;;;;;;;;;;5049084;28;20501;-71
2021/04/04 12:16:53;;;;;;;0.90;0.80;;;;;;;;;;5044090;28;20409;-70
2021/04/04 12:19:29;;;;;;;0.70;0.50;;;;;;;;;;5042100;28;20448;-70
2021/04/04 12:21:56;;;;;;;0.70;0.40;;;;;;;;;;5043336;28;20904;-70
2021/04/04 12:24:39;;;;;;;0.80;0.63;;;;;;;;;;5048113;28;20466;-70
2021/04/04 12:27:06;;;;;;;0.70;0.40;;;;;;;;;;5042305;28;20420;-73
2021/04/04 12:29:54;;;;;;;1.30;0.60;;;;;;;;;;5046993;28;20792;-70
2021/04/04 12:32:20;;;;;;;1.00;0.90;;;;;;;;;;5048013;28;20421;-70
2021/04/04 12:34:47;;;;;;;0.70;0.70;;;;;;;;;;5039122;28;20798;-72
2021/04/04 12:37:13;;;;;;;1.73;0.60;;;;;;;;;;5050204;28;20426;-71
2021/04/04 12:39:40;;;;;;;1.00;0.70;;;;;;;;;;5050825;28;20952;-72
2021/04/04 12:42:12;;;;;;;0.90;0.60;;;;;;;;;;5044692;28;20467;-71
2021/04/04 12:44:39;;;;;;;0.70;0.50;;;;;;;;;;5043682;28;20400;-71
2021/04/04 12:47:09;;;;;;;0.70;0.50;;;;;;;;;;5051487;28;20673;-71
2021/04/04 12:49:35;;;;;;;0.70;0.50;;;;;;;;;;5051744;28;20417;-71
2021/04/04 12:52:02;;;;;;;0.70;0.40;;;;;;;;;;5051300;28;20398;-71
2021/04/04 12:54:28;;;;;;;0.70;0.70;;;;;;;;;;5051390;28;20406;-72
2021/04/04 12:56:54;;;;;;;16.43;1.10;;;;;;;;;;5037411;28;20413;-71
2021/04/04 12:59:20;;;;;;;0.70;0.53;;;;;;;;;;5042147;28;20895;-72
2021/04/04 13:01:49;;;;;;;1.43;1.20;;;;;;;;;;5050826;28;20397;-72
2021/04/04 13:04:18;;;;;;;2.20;0.70;;;;;;;;;;5051140;28;20405;-71
2021/04/04 13:06:45;;;;;;;0.80;0.70;;;;;;;;;;5051030;28;20430;-71
2021/04/04 13:09:14;;;;;;;36.60;25.87;;;;;;;;;;5039215;28;20413;-71
2021/04/04 13:11:41;;;;;;;397.07;303.57;;;;;;;;;;5039864;28;20405;-72
2021/04/04 13:14:07;;;;;;;378.50;314.97;;;;;;;;;;5040369;28;20782;-71
2021/04/04 13:16:33;;;;;;;516.67;346.33;;;;;;;;;;5044771;28;20440;-72
2021/04/04 13:18:59;;;;;;;474.67;345.90;;;;;;;;;;5043151;28;20508;-71
2021/04/04 13:21:26;;;;;;;431.23;322.83;;;;;;;;;;5039166;28;20504;-72
2021/04/04 13:23:53;;;;;;;225.17;202.27;;;;;;;;;;5042005;28;20460;-70
2021/04/04 13:26:32;;;;;;;461.07;393.13;;;;;;;;;;5040191;28;20394;-71
2021/04/04 13:29:06;;;;;;;378.63;339.63;;;;;;;;;;5013235;28;20551;-71
2021/04/04 13:31:33;;;;;;;511.87;380.23;;;;;;;;;;5012734;28;20948;-71
2021/04/04 13:34:15;;;;;;;286.93;247.70;;;;;;;;;;5033281;28;20902;-71
2021/04/04 13:36:54;;;;;;;0.70;0.50;;;;;;;;;;5050868;28;20424;-71
2021/04/04 13:39:22;;;;;;;456.47;334.60;;;;;;;;;;5045465;28;20472;-70
2021/04/04 13:41:49;;;;;;;497.20;387.50;;;;;;;;;;5042401;28;20420;-70
2021/04/04 13:44:16;;;;;;;550.47;268.90;;;;;;;;;;5040696;28;20397;-70
2021/04/04 13:46:51;;;;;;;655.95;502.75;;;;;;;;;;5040408;28;20738;-71
2021/04/04 13:49:20;;;;;;;445.57;347.67;;;;;;;;;;5040650;28;20172;-71
2021/04/04 13:51:46;;;;;;;0.70;0.50;;;;;;;;;;5035896;28;20402;-70
2021/04/04 13:54:13;;;;;;;0.70;0.40;;;;;;;;;;5035497;28;20464;-71
2021/04/04 13:56:49;;;;;;;0.70;0.53;;;;;;;;;;5035838;28;20429;-71
2021/04/04 13:59:25;;;;;;;36.43;32.67;;;;;;;;;;5037990;28;20898;-70
2021/04/04 14:01:52;;;;;;;1.87;0.73;;;;;;;;;;5039675;28;20415;-71
2021/04/04 14:04:29;;;;;;;1.17;0.83;;;;;;;;;;5038335;28;20409;-71
2021/04/04 14:07:00;;;;;;;0.80;0.70;;;;;;;;;;5030452;28;20401;-71
2021/04/04 14:09:33;;;;;;;0.80;0.70;;;;;;;;;;5032144;28;20924;-69
2021/04/04 14:11:59;;;;;;;0.70;0.50;;;;;;;;;;5045833;28;20426;-69
2021/04/04 14:14:25;;;;;;;0.70;0.50;;;;;;;;;;5043417;28;20412;-71
2021/04/04 14:16:59;;;;;;;0.70;0.50;;;;;;;;;;5051811;28;20929;-70
2021/04/04 14:19:25;;;;;;;0.90;0.60;;;;;;;;;;5063783;28;20474;-69
2021/04/04 14:21:51;;;;;;;0.70;0.50;;;;;;;;;;5069861;28;20442;-69
2021/04/04 14:24:17;;;;;;;0.80;0.50;;;;;;;;;;5068829;28;20413;-69
2021/04/04 14:26:43;;;;;;;0.97;0.50;;;;;;;;;;5070367;28;20409;-70
2021/04/04 14:29:09;;;;;;;1.00;0.90;;;;;;;;;;5070018;28;20411;-70
2021/04/04 14:31:36;;;;;;;34.63;18.00;;;;;;;;;;5070238;28;20452;-71
2021/04/04 14:34:02;;;;;;;0.70;0.40;;;;;;;;;;5069907;28;20448;-71
2021/04/04 14:36:28;;;;;;;0.70;0.50;;;;;;;;;;5068756;28;20419;-71
2021/04/04 14:38:54;;;;;;;6.70;4.33;;;;;;;;;;5044363;28;20465;-70
2021/04/04 14:41:19;;;;;;;;;;;;;;;;;;5045952;28;20823;-70
2021/04/04 14:46:11;;;;;;;1.30;0.60;;;;;;;;;;5044346;28;20494;-70
2021/04/04 14:48:37;;;;;;;0.70;0.50;;;;;;;;;;5044053;28;20186;-71
2021/04/04 14:51:04;;;;;;;1.17;0.77;;;;;;;;;;5033399;28;20433;-69
2021/04/04 14:53:30;;;;;;;0.80;0.70;;;;;;;;;;5045572;28;20422;-71
2021/04/04 14:55:57;;;;;;;0.70;0.50;;;;;;;;;;5057061;28;20457;-70
2021/04/04 14:58:24;;;;;;;0.90;0.63;;;;;;;;;;5051187;28;20448;-69